sensor_id;sensor_type;location;lat;lon;timestamp;pressure;altitude;pressure_sealevel;temperature;humidity
76128;BME280;64873;50.102;14.434;2023-07-09T00:01:48;99714.19;;;20.47;48.86
76128;BME280;64873;50.102;14.434;2023-07-09T00:04:14;99703.88;;;20.59;48.27
76128;BME280;64873;50.102;14.434;2023-07-09T00:06:40;99707.41;;;20.60;48.82
76128;BME280;64873;50.102;14.434;2023-07-09T00:09:10;99711.97;;;20.34;50.46
76128;BME280;64873;50.102;14.434;2023-07-09T00:11:37;99713.34;;;20.41;50.51
76128;BME280;64873;50.102;14.434;2023-07-09T00:14:05;99711.97;;;20.23;50.86
76128;BME280;64873;50.102;14.434;2023-07-09T00:16:30;99714.94;;;20.17;51.14
76128;BME280;64873;50.102;14.434;2023-07-09T00:18:56;99719.53;;;20.06;51.16
76128;BME280;64873;50.102;14.434;2023-07-09T00:21:22;99724.66;;;20.03;51.50
76128;BME280;64873;50.102;14.434;2023-07-09T00:23:48;99723.56;;;19.88;51.67
76128;BME280;64873;50.102;14.434;2023-07-09T00:26:15;99730.34;;;19.96;51.53
76128;BME280;64873;50.102;14.434;2023-07-09T00:28:44;99725.78;;;20.07;51.40
76128;BME280;64873;50.102;14.434;2023-07-09T00:31:15;99722.50;;;20.00;51.56
76128;BME280;64873;50.102;14.434;2023-07-09T00:33:42;99726.28;;;19.93;51.79
76128;BME280;64873;50.102;14.434;2023-07-09T00:36:21;99723.53;;;19.78;53.01
76128;BME280;64873;50.102;14.434;2023-07-09T00:38:49;99727.16;;;19.47;53.86
76128;BME280;64873;50.102;14.434;2023-07-09T00:41:19;99720.03;;;19.30;54.13
76128;BME280;64873;50.102;14.434;2023-07-09T00:43:47;99725.19;;;19.32;54.15
76128;BME280;64873;50.102;14.434;2023-07-09T00:47:06;99723.53;;;19.26;54.25
76128;BME280;64873;50.102;14.434;2023-07-09T00:49:06;99717.25;;;19.20;54.22
76128;BME280;64873;50.102;14.434;2023-07-09T00:51:40;99716.91;;;19.06;54.67
76128;BME280;64873;50.102;14.434;2023-07-09T00:54:22;99713.34;;;19.01;55.13
76128;BME280;64873;50.102;14.434;2023-07-09T00:56:50;99711.19;;;19.03;55.01
76128;BME280;64873;50.102;14.434;2023-07-09T00:59:20;99718.72;;;19.38;53.65
76128;BME280;64873;50.102;14.434;2023-07-09T01:01:47;99718.41;;;19.29;53.88
76128;BME280;64873;50.102;14.434;2023-07-09T01:04:17;99720.63;;;19.42;53.33
76128;BME280;64873;50.102;14.434;2023-07-09T01:06:55;99724.41;;;19.36;53.74
76128;BME280;64873;50.102;14.434;2023-07-09T01:09:23;99712.13;;;19.24;54.05
76128;BME280;64873;50.102;14.434;2023-07-09T01:11:48;99710.28;;;19.34;53.45
76128;BME280;64873;50.102;14.434;2023-07-09T01:14:18;99711.72;;;19.52;52.98
76128;BME280;64873;50.102;14.434;2023-07-09T01:16:52;99716.41;;;19.62;52.62
76128;BME280;64873;50.102;14.434;2023-07-09T01:19:23;99716.88;;;19.54;52.73
76128;BME280;64873;50.102;14.434;2023-07-09T01:21:54;99716.25;;;19.31;53.54
76128;BME280;64873;50.102;14.434;2023-07-09T01:24:58;99720.53;;;19.27;53.99
76128;BME280;64873;50.102;14.434;2023-07-09T01:27:30;99713.69;;;19.14;54.48
76128;BME280;64873;50.102;14.434;2023-07-09T01:29:59;99728.16;;;19.30;53.67
76128;BME280;64873;50.102;14.434;2023-07-09T01:37:48;99728.41;;;18.86;54.98
76128;BME280;64873;50.102;14.434;2023-07-09T01:40:17;99729.97;;;18.77;55.15
76128;BME280;64873;50.102;14.434;2023-07-09T01:42:43;99725.38;;;18.78;55.43
76128;BME280;64873;50.102;14.434;2023-07-09T01:45:09;99732.44;;;18.79;55.53
76128;BME280;64873;50.102;14.434;2023-07-09T01:47:38;99732.28;;;18.96;55.29
76128;BME280;64873;50.102;14.434;2023-07-09T01:50:07;99736.56;;;18.91;55.35
76128;BME280;64873;50.102;14.434;2023-07-09T01:52:33;99737.53;;;18.75;55.95
76128;BME280;64873;50.102;14.434;2023-07-09T01:54:59;99738.25;;;18.65;56.36
76128;BME280;64873;50.102;14.434;2023-07-09T01:57:27;99730.31;;;18.54;56.64
76128;BME280;64873;50.102;14.434;2023-07-09T02:00:00;99737.78;;;18.42;56.93
76128;BME280;64873;50.102;14.434;2023-07-09T02:02:26;99733.00;;;18.54;56.63
76128;BME280;64873;50.102;14.434;2023-07-09T02:04:53;99725.84;;;18.70;55.99
76128;BME280;64873;50.102;14.434;2023-07-09T02:07:20;99734.59;;;18.50;56.38
76128;BME280;64873;50.102;14.434;2023-07-09T02:09:47;99732.97;;;18.49;56.56
76128;BME280;64873;50.102;14.434;2023-07-09T02:12:14;99739.50;;;18.53;56.52
76128;BME280;64873;50.102;14.434;2023-07-09T02:14:40;99730.31;;;18.54;56.35
76128;BME280;64873;50.102;14.434;2023-07-09T02:17:07;99734.03;;;18.48;56.75
76128;BME280;64873;50.102;14.434;2023-07-09T02:19:32;99724.06;;;18.53;56.92
76128;BME280;64873;50.102;14.434;2023-07-09T02:21:58;99727.63;;;18.27;57.78
76128;BME280;64873;50.102;14.434;2023-07-09T02:24:24;99741.69;;;18.29;57.84
76128;BME280;64873;50.102;14.434;2023-07-09T02:27:01;99741.56;;;18.14;58.49
76128;BME280;64873;50.102;14.434;2023-07-09T02:29:29;99736.59;;;18.05;58.98
76128;BME280;64873;50.102;14.434;2023-07-09T02:31:56;99743.00;;;17.99;59.27
76128;BME280;64873;50.102;14.434;2023-07-09T02:34:24;99737.06;;;17.97;59.29
76128;BME280;64873;50.102;14.434;2023-07-09T02:36:54;99740.94;;;18.06;59.11
76128;BME280;64873;50.102;14.434;2023-07-09T02:39:20;99742.25;;;18.04;58.94
76128;BME280;64873;50.102;14.434;2023-07-09T02:41:46;99738.84;;;18.14;58.94
76128;BME280;64873;50.102;14.434;2023-07-09T02:44:12;99742.88;;;18.11;58.65
76128;BME280;64873;50.102;14.434;2023-07-09T02:46:37;99746.88;;;18.30;58.10
76128;BME280;64873;50.102;14.434;2023-07-09T02:49:04;99752.50;;;18.24;58.04
76128;BME280;64873;50.102;14.434;2023-07-09T02:51:30;99750.81;;;18.23;58.64
76128;BME280;64873;50.102;14.434;2023-07-09T02:53:58;99753.66;;;18.06;59.35
76128;BME280;64873;50.102;14.434;2023-07-09T02:56:24;99754.81;;;18.15;59.21
76128;BME280;64873;50.102;14.434;2023-07-09T02:58:50;99760.75;;;18.12;59.28
76128;BME280;64873;50.102;14.434;2023-07-09T03:01:16;99756.84;;;18.03;59.58
76128;BME280;64873;50.102;14.434;2023-07-09T03:03:41;99757.00;;;17.91;59.94
76128;BME280;64873;50.102;14.434;2023-07-09T03:06:07;99753.34;;;17.80;60.08
76128;BME280;64873;50.102;14.434;2023-07-09T03:08:33;99751.09;;;17.72;60.38
76128;BME280;64873;50.102;14.434;2023-07-09T03:11:00;99756.97;;;17.69;60.19
76128;BME280;64873;50.102;14.434;2023-07-09T03:13:25;99751.00;;;17.67;60.51
76128;BME280;64873;50.102;14.434;2023-07-09T03:15:57;99752.06;;;17.66;60.71
76128;BME280;64873;50.102;14.434;2023-07-09T03:18:23;99759.50;;;17.76;60.55
76128;BME280;64873;50.102;14.434;2023-07-09T03:20:48;99763.88;;;17.77;60.27
76128;BME280;64873;50.102;14.434;2023-07-09T03:23:14;99771.06;;;17.71;60.56
76128;BME280;64873;50.102;14.434;2023-07-09T03:25:43;99766.69;;;17.70;60.42
76128;BME280;64873;50.102;14.434;2023-07-09T03:28:10;99768.44;;;17.76;60.44
76128;BME280;64873;50.102;14.434;2023-07-09T03:30:46;99774.81;;;17.70;60.51
76128;BME280;64873;50.102;14.434;2023-07-09T03:33:13;99777.53;;;17.48;61.42
76128;BME280;64873;50.102;14.434;2023-07-09T03:35:39;99778.50;;;17.64;60.56
76128;BME280;64873;50.102;14.434;2023-07-09T03:38:05;99777.63;;;17.58;60.50
76128;BME280;64873;50.102;14.434;2023-07-09T03:40:31;99777.00;;;17.51;60.85
76128;BME280;64873;50.102;14.434;2023-07-09T03:42:57;99779.88;;;17.45;60.98
76128;BME280;64873;50.102;14.434;2023-07-09T03:45:22;99788.31;;;17.70;60.27
76128;BME280;64873;50.102;14.434;2023-07-09T03:47:48;99788.84;;;17.67;60.71
76128;BME280;64873;50.102;14.434;2023-07-09T03:50:13;99776.78;;;17.75;60.36
76128;BME280;64873;50.102;14.434;2023-07-09T03:52:39;99777.63;;;17.58;61.00
76128;BME280;64873;50.102;14.434;2023-07-09T03:55:05;99785.81;;;17.64;60.93
76128;BME280;64873;50.102;14.434;2023-07-09T03:57:31;99778.13;;;17.72;60.88
76128;BME280;64873;50.102;14.434;2023-07-09T03:59:56;99776.41;;;17.66;61.14
76128;BME280;64873;50.102;14.434;2023-07-09T04:02:22;99782.81;;;17.60;61.29
76128;BME280;64873;50.102;14.434;2023-07-09T04:04:47;99784.50;;;17.66;61.38
76128;BME280;64873;50.102;14.434;2023-07-09T04:07:13;99789.41;;;17.69;61.33
76128;BME280;64873;50.102;14.434;2023-07-09T04:09:39;99786.63;;;17.64;61.29
76128;BME280;64873;50.102;14.434;2023-07-09T04:12:05;99790.91;;;17.60;61.59
76128;BME280;64873;50.102;14.434;2023-07-09T04:14:31;99791.09;;;17.53;61.92
76128;BME280;64873;50.102;14.434;2023-07-09T04:16:56;99791.53;;;17.67;61.49
76128;BME280;64873;50.102;14.434;2023-07-09T04:19:23;99786.81;;;17.57;61.81
76128;BME280;64873;50.102;14.434;2023-07-09T04:21:48;99791.72;;;17.61;61.67
76128;BME280;64873;50.102;14.434;2023-07-09T04:24:16;99790.06;;;17.76;61.26
76128;BME280;64873;50.102;14.434;2023-07-09T04:26:42;99790.88;;;17.99;60.18
76128;BME280;64873;50.102;14.434;2023-07-09T04:29:07;99794.59;;;17.93;60.63
76128;BME280;64873;50.102;14.434;2023-07-09T04:31:32;99805.03;;;18.06;60.44
76128;BME280;64873;50.102;14.434;2023-07-09T04:33:58;99798.22;;;18.25;59.63
76128;BME280;64873;50.102;14.434;2023-07-09T04:36:23;99804.44;;;18.26;59.55
76128;BME280;64873;50.102;14.434;2023-07-09T04:38:50;99805.88;;;18.33;59.29
76128;BME280;64873;50.102;14.434;2023-07-09T04:41:15;99808.16;;;18.47;58.44
76128;BME280;64873;50.102;14.434;2023-07-09T04:43:40;99807.22;;;18.31;59.06
76128;BME280;64873;50.102;14.434;2023-07-09T04:46:06;99807.56;;;18.39;58.82
76128;BME280;64873;50.102;14.434;2023-07-09T04:48:31;99808.97;;;18.42;58.85
76128;BME280;64873;50.102;14.434;2023-07-09T04:50:57;99804.47;;;18.53;58.40
76128;BME280;64873;50.102;14.434;2023-07-09T04:53:25;99805.34;;;18.63;58.71
76128;BME280;64873;50.102;14.434;2023-07-09T04:55:50;99804.53;;;18.63;58.48
76128;BME280;64873;50.102;14.434;2023-07-09T04:58:17;99812.31;;;18.81;57.94
76128;BME280;64873;50.102;14.434;2023-07-09T05:00:43;99810.19;;;18.83;57.68
76128;BME280;64873;50.102;14.434;2023-07-09T05:03:09;99810.47;;;18.87;57.73
76128;BME280;64873;50.102;14.434;2023-07-09T05:05:34;99824.28;;;18.85;57.66
76128;BME280;64873;50.102;14.434;2023-07-09T05:08:00;99822.13;;;18.87;57.23
76128;BME280;64873;50.102;14.434;2023-07-09T05:10:25;99823.78;;;18.94;57.36
76128;BME280;64873;50.102;14.434;2023-07-09T05:12:52;99822.81;;;19.05;56.88
76128;BME280;64873;50.102;14.434;2023-07-09T05:15:19;99827.22;;;19.16;56.57
76128;BME280;64873;50.102;14.434;2023-07-09T05:17:45;99821.34;;;19.24;56.35
76128;BME280;64873;50.102;14.434;2023-07-09T05:20:11;99823.88;;;19.36;56.84
76128;BME280;64873;50.102;14.434;2023-07-09T05:22:37;99823.94;;;19.51;56.68
76128;BME280;64873;50.102;14.434;2023-07-09T05:25:02;99814.72;;;19.52;56.41
76128;BME280;64873;50.102;14.434;2023-07-09T05:27:28;99818.13;;;19.64;55.84
76128;BME280;64873;50.102;14.434;2023-07-09T05:29:53;99822.47;;;19.70;55.22
76128;BME280;64873;50.102;14.434;2023-07-09T05:32:19;99821.66;;;19.75;55.70
76128;BME280;64873;50.102;14.434;2023-07-09T05:34:44;99828.00;;;19.91;54.68
76128;BME280;64873;50.102;14.434;2023-07-09T05:37:09;99825.56;;;19.94;54.25
76128;BME280;64873;50.102;14.434;2023-07-09T05:39:35;99835.63;;;20.04;54.39
76128;BME280;64873;50.102;14.434;2023-07-09T05:42:00;99828.41;;;20.30;53.11
76128;BME280;64873;50.102;14.434;2023-07-09T05:44:26;99833.28;;;20.33;51.43
76128;BME280;64873;50.102;14.434;2023-07-09T05:46:51;99827.28;;;20.16;51.39
76128;BME280;64873;50.102;14.434;2023-07-09T05:49:17;99817.22;;;20.16;51.04
76128;BME280;64873;50.102;14.434;2023-07-09T05:51:43;99825.16;;;20.23;51.04
76128;BME280;64873;50.102;14.434;2023-07-09T05:54:08;99819.97;;;20.27;50.74
76128;BME280;64873;50.102;14.434;2023-07-09T05:56:34;99832.78;;;20.41;50.31
76128;BME280;64873;50.102;14.434;2023-07-09T05:58:59;99818.66;;;20.44;50.05
76128;BME280;64873;50.102;14.434;2023-07-09T06:01:25;99825.50;;;20.47;50.17
76128;BME280;64873;50.102;14.434;2023-07-09T06:03:51;99822.53;;;20.54;49.93
76128;BME280;64873;50.102;14.434;2023-07-09T06:06:17;99832.59;;;20.73;49.56
76128;BME280;64873;50.102;14.434;2023-07-09T06:08:42;99833.97;;;20.81;49.47
76128;BME280;64873;50.102;14.434;2023-07-09T06:11:08;99823.66;;;20.88;49.01
76128;BME280;64873;50.102;14.434;2023-07-09T06:13:34;99831.25;;;20.91;48.41
76128;BME280;64873;50.102;14.434;2023-07-09T06:16:00;99828.56;;;21.01;48.51
76128;BME280;64873;50.102;14.434;2023-07-09T06:18:26;99829.91;;;21.19;48.10
76128;BME280;64873;50.102;14.434;2023-07-09T06:20:57;99825.84;;;21.37;47.77
76128;BME280;64873;50.102;14.434;2023-07-09T06:23:23;99826.94;;;21.36;47.68
76128;BME280;64873;50.102;14.434;2023-07-09T06:25:49;99819.81;;;21.50;47.41
76128;BME280;64873;50.102;14.434;2023-07-09T06:28:17;99829.06;;;21.49;46.96
76128;BME280;64873;50.102;14.434;2023-07-09T06:30:44;99823.34;;;21.46;47.24
76128;BME280;64873;50.102;14.434;2023-07-09T06:33:11;99826.88;;;21.51;46.75
76128;BME280;64873;50.102;14.434;2023-07-09T06:35:37;99831.16;;;21.88;46.56
76128;BME280;64873;50.102;14.434;2023-07-09T06:38:03;99827.53;;;22.03;45.94
76128;BME280;64873;50.102;14.434;2023-07-09T06:40:28;99830.56;;;22.01;46.24
76128;BME280;64873;50.102;14.434;2023-07-09T06:42:54;99828.31;;;22.24;45.14
76128;BME280;64873;50.102;14.434;2023-07-09T06:45:19;99829.81;;;22.45;45.01
76128;BME280;64873;50.102;14.434;2023-07-09T06:47:46;99829.34;;;22.33;45.01
76128;BME280;64873;50.102;14.434;2023-07-09T06:50:12;99826.50;;;22.53;44.07
76128;BME280;64873;50.102;14.434;2023-07-09T06:52:37;99822.31;;;22.71;43.93
76128;BME280;64873;50.102;14.434;2023-07-09T06:55:03;99831.22;;;22.87;43.70
76128;BME280;64873;50.102;14.434;2023-07-09T06:57:28;99822.34;;;23.05;42.74
76128;BME280;64873;50.102;14.434;2023-07-09T06:59:54;99826.66;;;23.11;43.01
76128;BME280;64873;50.102;14.434;2023-07-09T07:02:19;99830.38;;;23.21;43.20
76128;BME280;64873;50.102;14.434;2023-07-09T07:04:45;99817.84;;;23.20;42.73
76128;BME280;64873;50.102;14.434;2023-07-09T07:07:10;99816.69;;;23.26;43.00
76128;BME280;64873;50.102;14.434;2023-07-09T07:09:36;99820.66;;;23.38;41.89
76128;BME280;64873;50.102;14.434;2023-07-09T07:12:01;99826.81;;;23.49;42.03
76128;BME280;64873;50.102;14.434;2023-07-09T07:14:27;99821.66;;;23.48;42.17
76128;BME280;64873;50.102;14.434;2023-07-09T07:16:52;99825.91;;;23.59;41.32
76128;BME280;64873;50.102;14.434;2023-07-09T07:19:18;99825.00;;;23.68;41.20
76128;BME280;64873;50.102;14.434;2023-07-09T07:21:43;99819.75;;;23.77;41.79
76128;BME280;64873;50.102;14.434;2023-07-09T07:24:08;99826.19;;;23.86;40.81
76128;BME280;64873;50.102;14.434;2023-07-09T07:26:34;99823.38;;;23.91;40.74
76128;BME280;64873;50.102;14.434;2023-07-09T07:28:59;99822.41;;;24.06;40.54
76128;BME280;64873;50.102;14.434;2023-07-09T07:31:25;99828.31;;;24.13;40.28
76128;BME280;64873;50.102;14.434;2023-07-09T07:33:51;99823.59;;;24.19;40.30
76128;BME280;64873;50.102;14.434;2023-07-09T07:36:16;99829.50;;;24.26;39.96
76128;BME280;64873;50.102;14.434;2023-07-09T07:38:42;99825.75;;;24.22;39.87
76128;BME280;64873;50.102;14.434;2023-07-09T07:41:07;99832.44;;;24.35;39.53
76128;BME280;64873;50.102;14.434;2023-07-09T07:43:33;99826.97;;;24.35;39.39
76128;BME280;64873;50.102;14.434;2023-07-09T07:45:58;99827.19;;;24.38;39.63
76128;BME280;64873;50.102;14.434;2023-07-09T07:48:24;99811.69;;;24.53;39.01
76128;BME280;64873;50.102;14.434;2023-07-09T07:50:49;99814.28;;;24.63;38.77
76128;BME280;64873;50.102;14.434;2023-07-09T07:53:15;99829.38;;;24.74;38.45
76128;BME280;64873;50.102;14.434;2023-07-09T07:55:41;99816.97;;;24.82;38.85
76128;BME280;64873;50.102;14.434;2023-07-09T07:58:12;99815.56;;;24.84;38.84
76128;BME280;64873;50.102;14.434;2023-07-09T08:00:38;99816.28;;;24.90;38.21
76128;BME280;64873;50.102;14.434;2023-07-09T08:03:04;99810.00;;;24.89;38.45
76128;BME280;64873;50.102;14.434;2023-07-09T08:05:29;99805.97;;;24.87;38.39
76128;BME280;64873;50.102;14.434;2023-07-09T08:07:55;99806.56;;;24.84;37.96
76128;BME280;64873;50.102;14.434;2023-07-09T08:10:21;99805.66;;;25.07;37.88
76128;BME280;64873;50.102;14.434;2023-07-09T08:12:47;99808.94;;;25.23;38.93
76128;BME280;64873;50.102;14.434;2023-07-09T08:15:12;99803.84;;;25.16;38.49
76128;BME280;64873;50.102;14.434;2023-07-09T08:17:38;99805.97;;;25.19;36.67
76128;BME280;64873;50.102;14.434;2023-07-09T08:20:04;99809.13;;;25.26;38.86
76128;BME280;64873;50.102;14.434;2023-07-09T08:22:30;99796.06;;;25.23;37.99
76128;BME280;64873;50.102;14.434;2023-07-09T08:24:55;99802.88;;;25.40;37.80
76128;BME280;64873;50.102;14.434;2023-07-09T08:27:21;99797.41;;;25.40;35.48
76128;BME280;64873;50.102;14.434;2023-07-09T08:29:46;99801.88;;;25.49;38.49
76128;BME280;64873;50.102;14.434;2023-07-09T08:32:12;99794.59;;;25.45;35.87
76128;BME280;64873;50.102;14.434;2023-07-09T08:34:39;99787.38;;;25.49;35.72
76128;BME280;64873;50.102;14.434;2023-07-09T08:37:06;99790.72;;;25.60;37.97
76128;BME280;64873;50.102;14.434;2023-07-09T08:39:32;99793.16;;;25.47;38.66
76128;BME280;64873;50.102;14.434;2023-07-09T08:42:21;99786.88;;;25.61;36.18
76128;BME280;64873;50.102;14.434;2023-07-09T08:45:11;99791.84;;;25.45;38.17
76128;BME280;64873;50.102;14.434;2023-07-09T08:50:09;99787.91;;;25.78;35.78
76128;BME280;64873;50.102;14.434;2023-07-09T08:52:39;99786.50;;;25.95;35.64
76128;BME280;64873;50.102;14.434;2023-07-09T08:55:12;99786.06;;;26.15;35.33
76128;BME280;64873;50.102;14.434;2023-07-09T08:57:41;99782.94;;;26.44;34.84
76128;BME280;64873;50.102;14.434;2023-07-09T09:02:50;99786.28;;;26.77;33.88
76128;BME280;64873;50.102;14.434;2023-07-09T09:05:19;99784.78;;;26.94;33.66
76128;BME280;64873;50.102;14.434;2023-07-09T09:07:50;99782.66;;;26.91;34.25
76128;BME280;64873;50.102;14.434;2023-07-09T09:10:30;99777.50;;;26.89;33.32
76128;BME280;64873;50.102;14.434;2023-07-09T09:15:32;99785.59;;;26.94;31.96
76128;BME280;64873;50.102;14.434;2023-07-09T09:20:44;99777.81;;;27.10;32.60
76128;BME280;64873;50.102;14.434;2023-07-09T09:23:14;99783.66;;;27.17;32.93
76128;BME280;64873;50.102;14.434;2023-07-09T09:25:43;99789.47;;;27.47;32.29
76128;BME280;64873;50.102;14.434;2023-07-09T09:28:11;99786.44;;;27.57;32.10
76128;BME280;64873;50.102;14.434;2023-07-09T09:30:36;99773.31;;;27.45;32.15
76128;BME280;64873;50.102;14.434;2023-07-09T09:33:07;99784.09;;;27.42;32.14
76128;BME280;64873;50.102;14.434;2023-07-09T09:35:36;99779.69;;;27.63;31.96
76128;BME280;64873;50.102;14.434;2023-07-09T09:38:08;99775.16;;;27.67;31.08
76128;BME280;64873;50.102;14.434;2023-07-09T09:40:35;99774.28;;;27.80;29.46
76128;BME280;64873;50.102;14.434;2023-07-09T09:43:02;99774.47;;;27.93;30.03
76128;BME280;64873;50.102;14.434;2023-07-09T09:45:38;99764.59;;;27.92;29.93
76128;BME280;64873;50.102;14.434;2023-07-09T09:48:20;99768.81;;;27.98;29.61
76128;BME280;64873;50.102;14.434;2023-07-09T09:50:51;99763.06;;;28.42;28.08
76128;BME280;64873;50.102;14.434;2023-07-09T09:53:23;99777.59;;;28.69;28.06
76128;BME280;64873;50.102;14.434;2023-07-09T09:55:51;99773.91;;;28.74;27.84
76128;BME280;64873;50.102;14.434;2023-07-09T09:58:18;99775.84;;;28.56;28.58
76128;BME280;64873;50.102;14.434;2023-07-09T10:00:51;99765.94;;;28.72;28.01
76128;BME280;64873;50.102;14.434;2023-07-09T10:03:20;99764.50;;;28.75;27.40
76128;BME280;64873;50.102;14.434;2023-07-09T10:05:52;99766.94;;;28.59;28.06
76128;BME280;64873;50.102;14.434;2023-07-09T10:11:15;99766.59;;;28.69;27.46
76128;BME280;64873;50.102;14.434;2023-07-09T10:13:44;99760.28;;;28.60;28.17
76128;BME280;64873;50.102;14.434;2023-07-09T10:16:34;99763.72;;;28.57;28.38
76128;BME280;64873;50.102;14.434;2023-07-09T10:19:28;99759.66;;;28.63;28.41
76128;BME280;64873;50.102;14.434;2023-07-09T10:22:06;99760.78;;;28.79;28.76
76128;BME280;64873;50.102;14.434;2023-07-09T10:25:00;99752.69;;;28.74;28.08
76128;BME280;64873;50.102;14.434;2023-07-09T10:40:56;99751.00;;;29.63;25.44
76128;BME280;64873;50.102;14.434;2023-07-09T10:43:44;99750.00;;;29.68;26.52
76128;BME280;64873;50.102;14.434;2023-07-09T10:46:14;99753.94;;;29.50;25.64
76128;BME280;64873;50.102;14.434;2023-07-09T10:48:44;99754.91;;;29.54;26.23
76128;BME280;64873;50.102;14.434;2023-07-09T10:53:58;99761.38;;;29.58;25.62
76128;BME280;64873;50.102;14.434;2023-07-09T10:56:27;99757.66;;;29.54;25.79
76128;BME280;64873;50.102;14.434;2023-07-09T11:01:33;99752.88;;;29.33;26.32
76128;BME280;64873;50.102;14.434;2023-07-09T11:04:04;99751.28;;;29.32;26.64
76128;BME280;64873;50.102;14.434;2023-07-09T11:06:41;99742.63;;;29.42;27.34
76128;BME280;64873;50.102;14.434;2023-07-09T11:09:34;99736.84;;;29.73;25.15
76128;BME280;64873;50.102;14.434;2023-07-09T11:12:11;99741.09;;;29.92;25.97
76128;BME280;64873;50.102;14.434;2023-07-09T11:17:19;99735.94;;;29.90;25.39
76128;BME280;64873;50.102;14.434;2023-07-09T11:19:48;99736.41;;;29.63;25.67
76128;BME280;64873;50.102;14.434;2023-07-09T11:22:37;99729.38;;;29.74;25.86
76128;BME280;64873;50.102;14.434;2023-07-09T11:25:14;99742.75;;;29.84;25.85
76128;BME280;64873;50.102;14.434;2023-07-09T11:27:52;99735.84;;;29.99;24.15
76128;BME280;64873;50.102;14.434;2023-07-09T11:30:25;99731.25;;;30.12;24.80
76128;BME280;64873;50.102;14.434;2023-07-09T11:32:59;99733.16;;;29.90;24.62
76128;BME280;64873;50.102;14.434;2023-07-09T11:35:27;99730.19;;;29.95;26.21
76128;BME280;64873;50.102;14.434;2023-07-09T11:37:54;99730.19;;;29.95;25.03
76128;BME280;64873;50.102;14.434;2023-07-09T11:40:22;99725.25;;;30.10;24.84
76128;BME280;64873;50.102;14.434;2023-07-09T11:42:56;99731.31;;;30.24;25.16
76128;BME280;64873;50.102;14.434;2023-07-09T11:45:28;99727.91;;;30.27;24.69
76128;BME280;64873;50.102;14.434;2023-07-09T11:48:13;99723.63;;;30.50;23.70
76128;BME280;64873;50.102;14.434;2023-07-09T11:50:46;99718.00;;;30.26;23.93
76128;BME280;64873;50.102;14.434;2023-07-09T11:55:51;99719.81;;;30.22;26.64
76128;BME280;64873;50.102;14.434;2023-07-09T11:58:18;99715.28;;;29.96;31.12
76128;BME280;64873;50.102;14.434;2023-07-09T12:00:49;99702.50;;;29.92;30.71
76128;BME280;64873;50.102;14.434;2023-07-09T12:03:25;99698.84;;;29.20;31.67
76128;BME280;64873;50.102;14.434;2023-07-09T12:05:53;99698.59;;;28.95;33.16
76128;BME280;64873;50.102;14.434;2023-07-09T12:08:48;99694.78;;;28.53;33.04
76128;BME280;64873;50.102;14.434;2023-07-09T12:11:33;99696.97;;;28.94;31.50
76128;BME280;64873;50.102;14.434;2023-07-09T12:14:03;99695.19;;;28.90;30.44
76128;BME280;64873;50.102;14.434;2023-07-09T12:16:39;99694.00;;;29.17;31.02
76128;BME280;64873;50.102;14.434;2023-07-09T12:19:04;99703.81;;;28.71;32.38
76128;BME280;64873;50.102;14.434;2023-07-09T12:21:31;99694.72;;;28.97;29.64
76128;BME280;64873;50.102;14.434;2023-07-09T12:23:57;99696.91;;;29.12;27.31
76128;BME280;64873;50.102;14.434;2023-07-09T12:26:23;99696.97;;;28.94;28.72
76128;BME280;64873;50.102;14.434;2023-07-09T12:28:53;99683.53;;;29.31;26.16
76128;BME280;64873;50.102;14.434;2023-07-09T12:31:24;99683.31;;;29.54;26.56
76128;BME280;64873;50.102;14.434;2023-07-09T12:33:52;99680.75;;;29.40;28.10
76128;BME280;64873;50.102;14.434;2023-07-09T12:36:18;99679.81;;;28.98;30.51
76128;BME280;64873;50.102;14.434;2023-07-09T12:38:48;99683.31;;;29.15;26.35
76128;BME280;64873;50.102;14.434;2023-07-09T12:41:23;99667.25;;;29.56;25.97
76128;BME280;64873;50.102;14.434;2023-07-09T12:43:50;99676.47;;;29.60;26.55
76128;BME280;64873;50.102;14.434;2023-07-09T12:46:16;99670.63;;;29.82;24.53
76128;BME280;64873;50.102;14.434;2023-07-09T12:48:43;99672.91;;;30.01;25.98
76128;BME280;64873;50.102;14.434;2023-07-09T12:51:16;99653.03;;;30.16;23.70
76128;BME280;64873;50.102;14.434;2023-07-09T12:53:44;99664.47;;;29.85;25.29
76128;BME280;64873;50.102;14.434;2023-07-09T12:56:12;99652.22;;;29.74;25.10
76128;BME280;64873;50.102;14.434;2023-07-09T12:58:39;99650.41;;;29.78;28.87
76128;BME280;64873;50.102;14.434;2023-07-09T13:01:15;99638.06;;;29.25;25.66
76128;BME280;64873;50.102;14.434;2023-07-09T13:03:41;99637.28;;;29.54;24.87
76128;BME280;64873;50.102;14.434;2023-07-09T13:08:56;99629.66;;;29.81;24.73
76128;BME280;64873;50.102;14.434;2023-07-09T13:11:23;99637.84;;;29.68;25.76
76128;BME280;64873;50.102;14.434;2023-07-09T13:14:01;99631.41;;;29.85;27.15
76128;BME280;64873;50.102;14.434;2023-07-09T13:16:27;99627.97;;;29.88;25.33
76128;BME280;64873;50.102;14.434;2023-07-09T13:18:52;99618.47;;;29.98;23.91
76128;BME280;64873;50.102;14.434;2023-07-09T13:21:19;99626.34;;;30.08;25.20
76128;BME280;64873;50.102;14.434;2023-07-09T13:23:45;99618.81;;;29.76;27.96
76128;BME280;64873;50.102;14.434;2023-07-09T13:26:12;99629.09;;;29.66;26.99
76128;BME280;64873;50.102;14.434;2023-07-09T13:28:38;99621.13;;;29.73;27.47
76128;BME280;64873;50.102;14.434;2023-07-09T13:33:35;99619.91;;;29.33;28.54
76128;BME280;64873;50.102;14.434;2023-07-09T13:36:02;99619.94;;;29.24;28.50
76128;BME280;64873;50.102;14.434;2023-07-09T13:38:27;99622.78;;;29.07;29.52
76128;BME280;64873;50.102;14.434;2023-07-09T13:40:55;99617.56;;;29.14;29.08
76128;BME280;64873;50.102;14.434;2023-07-09T13:43:29;99610.16;;;29.65;24.22
76128;BME280;64873;50.102;14.434;2023-07-09T13:45:55;99619.38;;;30.11;26.87